Time;durP1;ratioP1;P1;durP2;ratioP2;P2;SDS_P1;SDS_P2;PMS_P1;PMS_P2;Temp;Humidity;BMP_temperature;BMP_pressure;BME280_temperature;BME280_humidity;BME280_pressure;Samples;Min_cycle;Max_cycle;Signal;HPM_P1;HPM_P2
2023/10/15 00:01:59;;;;;;;11.27;3.03;;;9.50;21.10;;;;;;5010612;28;20506;-64
2023/10/15 00:04:25;;;;;;;8.43;3.10;;;9.50;21.10;;;;;;5005525;28;20495;-64
2023/10/15 00:06:52;;;;;;;6.13;2.37;;;9.50;20.80;;;;;;5008904;28;20463;-64
2023/10/15 00:09:18;;;;;;;8.00;2.60;;;9.40;20.70;;;;;;5009106;28;20201;-64
2023/10/15 00:11:45;;;;;;;7.63;2.73;;;9.40;20.70;;;;;;5006555;28;20475;-64
2023/10/15 00:14:13;;;;;;;8.53;3.30;;;9.40;20.90;;;;;;5003408;28;20481;-64
2023/10/15 00:16:41;;;;;;;6.90;2.40;;;9.40;21.20;;;;;;5007214;28;20468;-65
2023/10/15 00:19:10;;;;;;;7.23;2.97;;;9.40;21.20;;;;;;5007847;28;20463;-64
2023/10/15 00:21:38;;;;;;;6.50;2.63;;;9.40;21.30;;;;;;5013159;28;20490;-64
2023/10/15 00:24:07;;;;;;;5.83;2.60;;;9.40;21.20;;;;;;5009960;28;20487;-64
2023/10/15 00:26:35;;;;;;;8.37;2.90;;;9.50;21.40;;;;;;5007057;28;20466;-64
2023/10/15 00:29:01;;;;;;;10.27;2.93;;;9.40;21.20;;;;;;5009897;28;20468;-64
2023/10/15 00:31:29;;;;;;;8.67;2.50;;;9.50;21.40;;;;;;5012659;28;20475;-64
2023/10/15 00:33:56;;;;;;;9.83;2.60;;;9.50;21.70;;;;;;5008498;28;20510;-64
2023/10/15 00:36:23;;;;;;;8.10;2.80;;;9.50;21.70;;;;;;5006985;28;20471;-64
2023/10/15 00:38:49;;;;;;;10.97;3.07;;;9.50;21.60;;;;;;5007395;28;20471;-64
2023/10/15 00:41:16;;;;;;;8.10;3.10;;;9.50;21.80;;;;;;5011177;28;20594;-64
2023/10/15 00:43:52;;;;;;;7.60;3.03;;;9.50;21.70;;;;;;5015806;28;20470;-65
2023/10/15 00:46:19;;;;;;;7.40;3.43;;;9.60;21.70;;;;;;5015041;28;20566;-64
2023/10/15 00:48:47;;;;;;;7.20;2.50;;;9.60;21.70;;;;;;5003680;28;20495;-64
2023/10/15 00:51:14;;;;;;;7.53;2.90;;;9.60;21.60;;;;;;5014501;28;20836;-64
2023/10/15 00:53:48;;;;;;;6.83;2.37;;;9.70;21.70;;;;;;5010723;28;20463;-64
2023/10/15 00:56:18;;;;;;;6.87;2.50;;;9.70;21.50;;;;;;5011765;28;20484;-64
2023/10/15 00:58:54;;;;;;;5.73;2.10;;;9.70;21.50;;;;;;5009060;28;20469;-64
2023/10/15 01:01:26;;;;;;;9.83;2.37;;;9.80;21.40;;;;;;5007341;28;20499;-65
2023/10/15 01:03:56;;;;;;;7.77;2.10;;;9.80;21.40;;;;;;5013046;28;20555;-64
2023/10/15 01:06:30;;;;;;;8.13;1.93;;;9.80;21.50;;;;;;5013453;28;21278;-64
2023/10/15 01:08:59;;;;;;;5.43;2.20;;;9.80;21.30;;;;;;5014553;28;21984;-65
2023/10/15 01:11:28;;;;;;;5.20;2.10;;;9.90;21.30;;;;;;5013345;28;20468;-64
2023/10/15 01:13:55;;;;;;;7.93;2.20;;;9.90;21.50;;;;;;5011144;28;20501;-65
2023/10/15 01:16:27;;;;;;;7.10;1.90;;;9.90;21.40;;;;;;5011190;28;20973;-64
2023/10/15 01:19:05;;;;;;;9.73;3.20;;;9.90;21.50;;;;;;5013994;28;20455;-64
2023/10/15 01:21:32;;;;;;;13.00;2.37;;;10.00;21.50;;;;;;5006388;28;20483;-64
2023/10/15 01:24:05;;;;;;;9.73;2.63;;;10.00;21.40;;;;;;5012813;28;20502;-64
2023/10/15 01:26:38;;;;;;;10.37;2.00;;;10.00;21.50;;;;;;5015157;28;20472;-65
2023/10/15 01:29:07;;;;;;;12.60;2.10;;;10.00;21.50;;;;;;5014719;28;20542;-64
2023/10/15 01:31:40;;;;;;;6.77;2.03;;;10.00;21.40;;;;;;5008307;28;20507;-65
2023/10/15 01:34:09;;;;;;;6.57;1.83;;;10.00;21.10;;;;;;5013884;28;20550;-65
2023/10/15 01:36:38;;;;;;;6.67;2.50;;;10.10;21.20;;;;;;5009888;28;20464;-65
2023/10/15 01:39:10;;;;;;;4.53;1.70;;;10.10;21.10;;;;;;5014937;28;20535;-64
2023/10/15 01:41:39;;;;;;;5.57;1.97;;;10.10;21.10;;;;;;5012848;28;20489;-65
2023/10/15 01:44:07;;;;;;;5.57;1.90;;;10.10;21.00;;;;;;5012473;28;20522;-65
2023/10/15 01:46:45;;;;;;;9.87;1.93;;;10.10;20.80;;;;;;5009230;28;20535;-64
2023/10/15 01:49:17;;;;;;;6.83;1.83;;;10.10;20.70;;;;;;5013921;28;20500;-65
2023/10/15 01:51:45;;;;;;;7.00;2.17;;;10.10;20.60;;;;;;5009071;28;20462;-65
2023/10/15 01:54:13;;;;;;;10.87;2.43;;;10.20;20.40;;;;;;5014522;28;20555;-64
2023/10/15 01:56:44;;;;;;;5.70;1.63;;;10.20;20.40;;;;;;5013812;28;20481;-64
2023/10/15 01:59:11;;;;;;;4.27;1.37;;;10.20;20.30;;;;;;5008884;28;20500;-64
2023/10/15 02:01:40;;;;;;;10.93;2.80;;;10.20;20.40;;;;;;5013684;28;20483;-64
2023/10/15 02:04:12;;;;;;;6.83;2.10;;;10.20;21.00;;;;;;5011406;28;20558;-64
2023/10/15 02:06:43;;;;;;;7.83;1.87;;;10.20;20.40;;;;;;5012963;28;20456;-65
2023/10/15 02:09:12;;;;;;;5.00;2.00;;;10.20;20.50;;;;;;5011536;28;20502;-65
2023/10/15 02:11:47;;;;;;;5.30;1.97;;;10.20;20.50;;;;;;5013426;28;20464;-64
2023/10/15 02:14:20;;;;;;;6.23;1.50;;;10.20;20.30;;;;;;5010306;28;20511;-64
2023/10/15 02:16:49;;;;;;;9.80;1.87;;;10.20;20.30;;;;;;5010963;28;20475;-64
2023/10/15 02:19:16;;;;;;;9.27;1.70;;;10.20;20.20;;;;;;5006234;28;20464;-65
2023/10/15 02:21:49;;;;;;;6.67;2.07;;;10.30;20.50;;;;;;5011166;28;20515;-64
2023/10/15 02:24:16;;;;;;;8.17;1.67;;;10.30;20.50;;;;;;5012167;28;21108;-64
2023/10/15 02:26:44;;;;;;;6.60;1.50;;;10.30;20.50;;;;;;5009501;28;20464;-65
2023/10/15 02:29:34;;;;;;;6.37;2.47;;;10.30;20.10;;;;;;5010435;28;20460;-64
2023/10/15 02:32:08;;;;;;;8.10;1.90;;;10.30;20.30;;;;;;5009518;28;20467;-65
2023/10/15 02:34:40;;;;;;;6.60;2.53;;;10.30;20.20;;;;;;5009645;28;20484;-64
2023/10/15 02:37:13;;;;;;;5.33;1.77;;;10.30;20.20;;;;;;5009967;28;20471;-64
2023/10/15 02:39:44;;;;;;;6.30;1.80;;;10.30;20.10;;;;;;5002853;28;20509;-64
2023/10/15 02:42:13;;;;;;;6.63;1.60;;;10.30;19.90;;;;;;5007048;28;20911;-64
2023/10/15 02:44:42;;;;;;;12.13;1.50;;;10.30;19.90;;;;;;5010911;28;20834;-64
2023/10/15 02:47:10;;;;;;;5.03;2.30;;;10.40;19.80;;;;;;5010632;28;20466;-64
2023/10/15 02:49:51;;;;;;;7.90;2.67;;;10.40;19.80;;;;;;5011918;28;20503;-64
2023/10/15 02:52:19;;;;;;;6.40;1.80;;;10.40;19.70;;;;;;5011724;28;20456;-64
2023/10/15 02:54:46;;;;;;;8.20;1.70;;;10.40;19.70;;;;;;5013990;28;20557;-65
2023/10/15 02:57:16;;;;;;;7.23;2.20;;;10.40;19.70;;;;;;5009821;28;20522;-64
2023/10/15 02:59:50;;;;;;;12.87;2.23;;;10.40;19.60;;;;;;5007794;28;21014;-64
2023/10/15 03:02:18;;;;;;;6.00;1.70;;;10.40;19.60;;;;;;5004698;28;20483;-64
2023/10/15 03:04:49;;;;;;;5.27;1.47;;;10.40;19.50;;;;;;5009460;28;20518;-65
2023/10/15 03:07:19;;;;;;;4.63;1.40;;;10.40;19.60;;;;;;5009939;28;20456;-65
2023/10/15 03:09:48;;;;;;;10.93;2.20;;;10.40;19.50;;;;;;5008880;28;20587;-64
2023/10/15 03:12:17;;;;;;;7.20;2.17;;;10.50;19.50;;;;;;5007551;28;20983;-64
2023/10/15 03:14:44;;;;;;;5.67;1.70;;;10.50;19.50;;;;;;5005856;28;21038;-65
2023/10/15 03:17:14;;;;;;;11.43;1.90;;;10.50;19.50;;;;;;5002078;28;20471;-65
2023/10/15 03:19:41;;;;;;;5.70;1.67;;;10.50;19.60;;;;;;5005588;28;20460;-65
2023/10/15 03:22:12;;;;;;;8.60;2.03;;;10.50;20.10;;;;;;5007810;28;21000;-65
2023/10/15 03:24:43;;;;;;;9.47;1.93;;;10.50;19.80;;;;;;5008043;28;20991;-65
2023/10/15 03:27:11;;;;;;;8.30;1.70;;;10.40;19.70;;;;;;5008703;28;20463;-65
2023/10/15 03:29:39;;;;;;;8.60;3.43;;;10.40;19.70;;;;;;5005103;28;20470;-65
2023/10/15 03:32:09;;;;;;;7.30;2.37;;;10.40;19.70;;;;;;5007932;28;20479;-64
2023/10/15 03:34:42;;;;;;;5.23;1.50;;;10.40;19.70;;;;;;5007753;28;20537;-65
2023/10/15 03:37:13;;;;;;;6.50;1.83;;;10.40;19.70;;;;;;5006247;28;20502;-65
2023/10/15 03:39:54;;;;;;;5.93;1.40;;;10.40;19.70;;;;;;5006130;28;20479;-64
2023/10/15 03:42:26;;;;;;;7.50;2.43;;;10.40;19.70;;;;;;5006281;28;20483;-65
2023/10/15 03:44:59;;;;;;;6.20;2.10;;;10.50;19.60;;;;;;5007742;28;20490;-64
2023/10/15 03:47:27;;;;;;;9.17;2.00;;;10.40;19.60;;;;;;5007908;28;21019;-64
2023/10/15 03:49:55;;;;;;;5.30;1.53;;;10.50;19.60;;;;;;5004737;28;20538;-65
2023/10/15 03:52:22;;;;;;;10.00;2.30;;;10.50;19.40;;;;;;5009367;28;20470;-65
2023/10/15 03:54:49;;;;;;;6.50;2.30;;;10.50;19.40;;;;;;5012763;28;20505;-65
2023/10/15 03:57:23;;;;;;;5.23;1.90;;;10.50;19.40;;;;;;5013443;28;20542;-64
2023/10/15 03:59:52;;;;;;;6.30;1.90;;;10.50;19.40;;;;;;5013277;28;20498;-65
2023/10/15 04:02:26;;;;;;;6.97;1.40;;;10.50;19.40;;;;;;5008618;28;20514;-64
2023/10/15 04:05:07;;;;;;;7.10;1.90;;;10.50;19.10;;;;;;5019644;28;20525;-64
2023/10/15 04:07:38;;;;;;;6.53;1.67;;;10.50;19.40;;;;;;5010189;28;20461;-66
2023/10/15 04:10:06;;;;;;;6.50;2.27;;;10.50;19.20;;;;;;5004194;28;20964;-65
2023/10/15 04:12:35;;;;;;;13.00;2.10;;;10.50;19.20;;;;;;5009474;28;20519;-65
2023/10/15 04:15:03;;;;;;;6.20;1.57;;;10.50;19.20;;;;;;5008358;28;20484;-65
2023/10/15 04:17:31;;;;;;;4.47;1.40;;;10.50;19.20;;;;;;5008009;28;20464;-65
2023/10/15 04:19:58;;;;;;;9.03;2.00;;;10.50;19.20;;;;;;5005489;28;20542;-64
2023/10/15 04:22:25;;;;;;;7.17;1.93;;;10.40;19.00;;;;;;5010067;28;20491;-65
2023/10/15 04:24:51;;;;;;;7.73;1.80;;;10.50;19.40;;;;;;5009224;28;20482;-64
2023/10/15 04:27:23;;;;;;;11.13;2.20;;;10.40;19.50;;;;;;5010755;28;20482;-65
2023/10/15 04:29:52;;;;;;;4.67;1.50;;;10.40;19.60;;;;;;5007232;28;20790;-65
2023/10/15 04:32:28;;;;;;;4.80;1.37;;;10.40;19.70;;;;;;5005629;28;20553;-65
2023/10/15 04:35:01;;;;;;;5.57;1.97;;;10.40;19.70;;;;;;5009255;28;20565;-64
2023/10/15 04:37:29;;;;;;;10.97;2.20;;;10.40;19.80;;;;;;5006653;28;21255;-65
2023/10/15 04:39:58;;;;;;;7.30;1.97;;;10.40;19.90;;;;;;5005412;28;20983;-65
2023/10/15 04:42:29;;;;;;;7.27;2.43;;;10.40;19.70;;;;;;5008222;28;20498;-65
2023/10/15 04:44:57;;;;;;;10.40;1.93;;;10.40;19.80;;;;;;5007197;28;20483;-65
2023/10/15 04:47:37;;;;;;;6.60;2.20;;;10.40;19.60;;;;;;5006490;28;20971;-65
2023/10/15 04:50:14;;;;;;;8.73;2.00;;;10.40;19.70;;;;;;5006669;28;20482;-64
2023/10/15 04:52:41;;;;;;;6.43;1.70;;;10.40;19.70;;;;;;5008013;28;20466;-65
2023/10/15 04:55:10;;;;;;;6.40;1.80;;;10.40;19.70;;;;;;5002754;28;20513;-63
2023/10/15 04:57:39;;;;;;;7.13;2.23;;;10.40;19.70;;;;;;5009743;28;20964;-64
2023/10/15 05:00:07;;;;;;;7.20;1.90;;;10.40;19.60;;;;;;5013535;28;20513;-64
2023/10/15 05:02:34;;;;;;;6.83;1.83;;;10.40;19.50;;;;;;5008574;28;20482;-65
2023/10/15 05:05:01;;;;;;;9.77;1.53;;;10.40;19.60;;;;;;5010654;28;20483;-65
2023/10/15 05:07:29;;;;;;;7.73;1.57;;;10.40;19.70;;;;;;5009912;28;20499;-65
2023/10/15 05:09:55;;;;;;;6.40;1.50;;;10.40;19.70;;;;;;5008803;28;20455;-65
2023/10/15 05:12:22;;;;;;;5.23;1.63;;;10.40;19.50;;;;;;5016174;28;20837;-64
2023/10/15 05:14:49;;;;;;;9.57;1.93;;;10.50;19.60;;;;;;5010337;28;21275;-65
2023/10/15 05:17:16;;;;;;;6.27;1.83;;;10.50;20.00;;;;;;5004620;28;20523;-64
2023/10/15 05:19:43;;;;;;;7.30;1.70;;;10.50;20.30;;;;;;5002182;28;20525;-65
2023/10/15 05:22:10;;;;;;;5.83;1.60;;;10.40;20.30;;;;;;5006174;28;20491;-65
2023/10/15 05:24:38;;;;;;;5.37;2.23;;;10.40;20.30;;;;;;5010264;28;20988;-64
2023/10/15 05:27:05;;;;;;;6.43;1.90;;;10.40;20.10;;;;;;5003906;28;20858;-64
2023/10/15 05:29:31;;;;;;;5.27;1.70;;;10.40;20.20;;;;;;5005830;28;20966;-64
2023/10/15 05:31:58;;;;;;;6.10;1.80;;;10.40;20.50;;;;;;5006972;28;20472;-65
2023/10/15 05:34:25;;;;;;;5.53;1.70;;;10.40;20.50;;;;;;5008258;28;20483;-64
2023/10/15 05:36:53;;;;;;;8.53;2.33;;;10.30;20.40;;;;;;5004824;28;20479;-64
2023/10/15 05:39:20;;;;;;;7.40;2.63;;;10.40;20.60;;;;;;5005919;28;21193;-64
2023/10/15 05:41:48;;;;;;;4.70;1.87;;;10.30;20.70;;;;;;5008239;28;20482;-64
2023/10/15 05:44:18;;;;;;;9.10;1.83;;;10.30;20.70;;;;;;5012935;28;20488;-64
2023/10/15 05:46:46;;;;;;;10.00;2.10;;;10.30;20.90;;;;;;5000885;28;20474;-64
2023/10/15 05:49:12;;;;;;;5.40;1.70;;;10.30;20.70;;;;;;5005039;28;20948;-64
2023/10/15 05:51:39;;;;;;;6.10;2.00;;;10.30;20.70;;;;;;5009921;28;20463;-64
2023/10/15 05:54:06;;;;;;;5.87;1.97;;;10.40;21.00;;;;;;5002882;28;20494;-65
2023/10/15 05:56:33;;;;;;;9.70;1.93;;;10.40;21.20;;;;;;5004328;28;20960;-65
2023/10/15 05:59:02;;;;;;;5.30;2.00;;;10.40;21.20;;;;;;5007188;28;20459;-64
2023/10/15 06:01:29;;;;;;;8.60;2.50;;;10.40;21.30;;;;;;5005853;28;20476;-64
2023/10/15 06:03:55;;;;;;;5.10;1.90;;;10.40;21.30;;;;;;5003175;28;20487;-65
2023/10/15 06:06:22;;;;;;;5.80;1.90;;;10.40;21.40;;;;;;5013035;28;21259;-65
2023/10/15 06:08:50;;;;;;;9.10;1.80;;;10.40;21.20;;;;;;5008536;28;20460;-64
2023/10/15 06:11:17;;;;;;;7.20;2.50;;;10.40;21.10;;;;;;5007712;28;20459;-65
2023/10/15 06:13:44;;;;;;;7.57;2.00;;;10.50;21.10;;;;;;5007250;28;20499;-64
2023/10/15 06:16:14;;;;;;;5.27;1.93;;;10.50;21.00;;;;;;5000258;28;20495;-64
2023/10/15 06:18:41;;;;;;;7.57;1.93;;;10.50;21.10;;;;;;5006691;28;20460;-64
2023/10/15 06:21:08;;;;;;;10.57;3.70;;;10.50;21.20;;;;;;5006677;28;20471;-64
2023/10/15 06:23:34;;;;;;;10.10;2.40;;;10.50;21.00;;;;;;5008633;28;20480;-64
2023/10/15 06:26:01;;;;;;;6.13;1.90;;;10.60;21.00;;;;;;5008913;28;20464;-64
2023/10/15 06:28:28;;;;;;;6.10;1.77;;;10.60;21.00;;;;;;5007653;28;20494;-64
2023/10/15 06:30:55;;;;;;;9.07;1.83;;;10.60;20.80;;;;;;5004785;28;21031;-64
2023/10/15 06:33:23;;;;;;;6.27;1.90;;;10.60;20.70;;;;;;5012066;28;20474;-64
2023/10/15 06:35:51;;;;;;;4.57;1.67;;;10.70;20.40;;;;;;5007997;28;20495;-64
2023/10/15 06:38:18;;;;;;;5.43;1.70;;;10.70;20.50;;;;;;5007152;28;20464;-64
2023/10/15 06:40:45;;;;;;;10.93;2.53;;;10.70;20.40;;;;;;5004376;28;20461;-64
2023/10/15 06:43:12;;;;;;;7.00;2.30;;;10.80;20.90;;;;;;5006720;28;20864;-64
2023/10/15 06:45:39;;;;;;;5.70;1.57;;;10.80;20.80;;;;;;5004879;28;20498;-64
2023/10/15 06:48:07;;;;;;;4.70;1.20;;;10.70;21.20;;;;;;5005886;28;20498;-64
2023/10/15 06:50:35;;;;;;;5.30;1.40;;;10.70;20.70;;;;;;5007894;28;20463;-64
2023/10/15 06:53:05;;;;;;;4.63;1.37;;;10.70;20.20;;;;;;5005056;28;20471;-64
2023/10/15 06:55:31;;;;;;;6.97;1.10;;;10.70;19.90;;;;;;5003906;28;20475;-64
2023/10/15 06:57:58;;;;;;;7.67;1.30;;;10.60;19.80;;;;;;5002048;28;20459;-65
2023/10/15 07:00:25;;;;;;;5.20;1.27;;;10.60;20.00;;;;;;5004950;28;20460;-64
2023/10/15 07:02:53;;;;;;;5.40;1.37;;;10.60;20.10;;;;;;5010370;28;20487;-65
2023/10/15 07:05:21;;;;;;;5.43;1.33;;;10.70;20.20;;;;;;5023298;28;20484;-65
2023/10/15 07:07:49;;;;;;;4.87;1.47;;;10.70;20.10;;;;;;5015436;28;20468;-65
2023/10/15 07:10:17;;;;;;;3.87;0.93;;;10.80;20.10;;;;;;5007174;28;20470;-65
2023/10/15 07:12:45;;;;;;;4.60;1.47;;;10.80;20.40;;;;;;5007833;28;20456;-65
2023/10/15 07:15:13;;;;;;;8.00;1.97;;;10.80;20.80;;;;;;5001958;28;20488;-65
2023/10/15 07:17:41;;;;;;;9.10;2.00;;;10.80;20.90;;;;;;5004566;28;20554;-65
2023/10/15 07:20:14;;;;;;;4.10;1.03;;;10.90;21.20;;;;;;5007930;28;20456;-65
2023/10/15 07:22:43;;;;;;;5.23;1.60;;;11.10;21.20;;;;;;5006855;28;20498;-65
2023/10/15 07:25:12;;;;;;;5.93;2.00;;;11.30;21.10;;;;;;5001924;28;20489;-65
2023/10/15 07:27:41;;;;;;;10.00;2.00;;;11.60;20.70;;;;;;5003050;28;20470;-65
2023/10/15 07:30:12;;;;;;;7.03;1.43;;;12.00;20.30;;;;;;5006809;28;20540;-65
2023/10/15 07:32:38;;;;;;;8.80;1.80;;;12.30;19.60;;;;;;4998950;28;20473;-66
2023/10/15 07:35:07;;;;;;;5.67;1.93;;;12.50;18.70;;;;;;5002462;28;20495;-66
2023/10/15 07:37:34;;;;;;;6.30;1.60;;;12.60;18.20;;;;;;5003224;28;20828;-65
2023/10/15 07:40:05;;;;;;;7.60;2.30;;;12.80;17.70;;;;;;5002956;28;20472;-65
2023/10/15 07:42:33;;;;;;;7.30;1.97;;;13.10;17.00;;;;;;5004366;28;20495;-65
2023/10/15 07:45:02;;;;;;;8.03;1.87;;;13.20;16.30;;;;;;5002938;28;20494;-65
2023/10/15 07:47:29;;;;;;;5.50;1.80;;;13.30;15.70;;;;;;5004489;28;20470;-65
2023/10/15 07:49:57;;;;;;;5.30;1.80;;;13.50;15.10;;;;;;5006699;28;20947;-65
2023/10/15 07:52:24;;;;;;;4.70;1.67;;;13.70;14.80;;;;;;5003399;28;20480;-65
2023/10/15 07:54:51;;;;;;;6.03;2.17;;;13.80;14.60;;;;;;5005777;28;20507;-66
2023/10/15 07:57:18;;;;;;;4.10;1.40;;;14.00;14.30;;;;;;5003978;28;20489;-66
2023/10/15 07:59:46;;;;;;;7.40;1.83;;;14.10;13.80;;;;;;5003838;28;20471;-66
2023/10/15 08:02:13;;;;;;;5.83;1.73;;;14.10;13.70;;;;;;5001193;28;20480;-66
2023/10/15 08:04:40;;;;;;;8.27;1.60;;;14.00;13.80;;;;;;5001312;28;21241;-65
2023/10/15 08:07:08;;;;;;;7.20;2.40;;;13.90;13.80;;;;;;5008952;28;20459;-65
2023/10/15 08:09:36;;;;;;;5.00;1.43;;;14.00;14.00;;;;;;5002931;28;20463;-65
2023/10/15 08:12:03;;;;;;;4.57;1.40;;;14.00;14.10;;;;;;5010916;28;20485;-65
2023/10/15 08:14:30;;;;;;;7.97;1.70;;;14.10;13.70;;;;;;5010208;28;20842;-65
2023/10/15 08:16:58;;;;;;;4.90;1.50;;;14.30;14.30;;;;;;5012172;28;20472;-65
2023/10/15 08:19:25;;;;;;;5.50;1.30;;;14.30;13.60;;;;;;5003730;28;20468;-63
2023/10/15 08:21:52;;;;;;;4.03;1.40;;;14.40;13.20;;;;;;5004987;28;20464;-65
2023/10/15 08:24:21;;;;;;;7.90;1.70;;;14.40;12.90;;;;;;5006762;28;20927;-65
2023/10/15 08:26:48;;;;;;;4.10;1.43;;;14.30;12.50;;;;;;5008570;28;20459;-64
2023/10/15 08:29:14;;;;;;;6.27;1.63;;;14.40;12.30;;;;;;5004930;28;20817;-67
2023/10/15 08:31:41;;;;;;;4.93;1.40;;;14.60;12.00;;;;;;4999877;28;20475;-65
2023/10/15 08:34:12;;;;;;;4.40;1.47;;;14.80;11.60;;;;;;5005730;28;20566;-66
2023/10/15 08:36:39;;;;;;;4.57;1.30;;;14.90;11.00;;;;;;5010069;28;20553;-67
2023/10/15 08:39:07;;;;;;;6.13;1.87;;;14.90;10.70;;;;;;5002915;28;21347;-66
2023/10/15 08:41:38;;;;;;;4.20;1.37;;;14.90;10.50;;;;;;5006103;28;20467;-66
2023/10/15 08:44:07;;;;;;;8.23;2.07;;;14.80;10.20;;;;;;5011255;28;20511;-67
2023/10/15 08:46:37;;;;;;;8.43;3.07;;;14.70;10.50;;;;;;5006078;28;20991;-67
2023/10/15 08:49:07;;;;;;;5.37;1.83;;;14.60;10.40;;;;;;5011153;28;20506;-66
2023/10/15 08:51:36;;;;;;;8.10;1.97;;;14.60;10.00;;;;;;5015152;28;20478;-67
2023/10/15 08:54:04;;;;;;;4.83;1.30;;;14.40;9.70;;;;;;5008603;28;20489;-70
2023/10/15 08:56:32;;;;;;;5.40;1.40;;;14.20;10.00;;;;;;5006772;28;20477;-65
2023/10/15 08:59:00;;;;;;;4.57;1.13;;;14.10;10.20;;;;;;5007856;28;20978;-65
2023/10/15 09:01:27;;;;;;;7.20;1.63;;;13.90;10.60;;;;;;5008148;28;20475;-65
2023/10/15 09:03:54;;;;;;;4.37;1.43;;;13.70;11.10;;;;;;5005337;28;20660;-66
2023/10/15 09:06:21;;;;;;;6.30;1.90;;;13.70;11.30;;;;;;5006569;28;20471;-65
2023/10/15 09:08:51;;;;;;;6.37;2.03;;;13.60;11.60;;;;;;5011796;28;20828;-65
2023/10/15 09:11:19;;;;;;;5.03;1.70;;;13.50;12.20;;;;;;5008787;28;20456;-66
2023/10/15 09:13:51;;;;;;;8.37;1.43;;;13.50;12.70;;;;;;5005929;28;20547;-66
2023/10/15 09:16:18;;;;;;;5.40;1.70;;;13.50;12.80;;;;;;5005266;28;20468;-66
2023/10/15 09:18:45;;;;;;;7.43;1.93;;;13.60;12.50;;;;;;5009783;28;20499;-66
2023/10/15 09:21:23;;;;;;;5.90;2.30;;;13.70;12.30;;;;;;5004967;28;20506;-66
2023/10/15 09:23:52;;;;;;;4.77;1.47;;;13.80;12.80;;;;;;5008772;28;20598;-66
2023/10/15 09:26:18;;;;;;;8.13;2.47;;;13.90;12.80;;;;;;5008214;28;20469;-66
2023/10/15 09:28:45;;;;;;;6.67;1.67;;;13.90;12.40;;;;;;5007384;28;20467;-66
2023/10/15 09:31:12;;;;;;;4.73;1.10;;;13.80;12.40;;;;;;5006209;28;20539;-66
2023/10/15 09:33:40;;;;;;;4.47;1.63;;;13.80;12.60;;;;;;5010759;28;20464;-67
2023/10/15 09:36:07;;;;;;;6.00;1.60;;;13.80;12.70;;;;;;5005580;28;20467;-65
2023/10/15 09:38:35;;;;;;;6.07;1.70;;;13.80;12.60;;;;;;5009160;28;20471;-65
2023/10/15 09:41:05;;;;;;;7.10;1.77;;;13.80;12.30;;;;;;5011316;28;20465;-67
2023/10/15 09:43:35;;;;;;;4.83;1.47;;;13.90;12.60;;;;;;5010357;28;20476;-67
2023/10/15 09:46:03;;;;;;;5.97;1.50;;;13.90;13.20;;;;;;5010978;28;20491;-67
2023/10/15 09:48:33;;;;;;;8.53;1.90;;;14.00;13.20;;;;;;5011546;28;20472;-67
2023/10/15 09:51:00;;;;;;;6.90;2.00;;;14.00;13.00;;;;;;5009613;28;20460;-66
2023/10/15 09:53:28;;;;;;;6.10;1.63;;;14.10;10.90;;;;;;5008282;28;20463;-66
2023/10/15 09:55:57;;;;;;;6.73;2.90;;;14.00;10.90;;;;;;5010613;28;20506;-66
2023/10/15 09:58:26;;;;;;;6.40;1.73;;;13.90;10.80;;;;;;5009160;28;20460;-66
2023/10/15 10:01:07;;;;;;;7.70;2.20;;;13.80;11.00;;;;;;5008524;28;20533;-66
2023/10/15 10:03:59;;;;;;;5.40;1.67;;;13.80;11.30;;;;;;5005735;28;20483;-65
2023/10/15 10:06:40;;;;;;;4.73;1.60;;;13.70;11.80;;;;;;5004994;28;20599;-65
2023/10/15 10:09:36;;;;;;;7.13;2.10;;;13.60;11.30;;;;;;5010881;28;21820;-65
2023/10/15 10:12:23;;;;;;;6.00;1.90;;;13.50;11.20;;;;;;5009193;28;20524;-66
2023/10/15 10:15:16;;;;;;;4.83;1.43;;;13.50;11.30;;;;;;5010087;28;20487;-66
2023/10/15 10:17:44;;;;;;;7.67;1.30;;;13.60;11.40;;;;;;5009722;28;20577;-64
2023/10/15 10:20:19;;;;;;;4.73;1.80;;;14.00;11.20;;;;;;5011059;28;20470;-65
2023/10/15 10:22:57;;;;;;;9.07;1.63;;;14.40;10.30;;;;;;5464223;23;20498;-66
2023/10/15 10:25:39;;;;;;;4.97;1.20;;;14.60;9.20;;;;;;5012563;28;20487;-67
2023/10/15 10:28:08;;;;;;;5.57;1.57;;;14.70;7.40;;;;;;5029802;28;20487;-69
2023/10/15 10:30:38;;;;;;;5.07;1.70;;;14.80;7.20;;;;;;5021910;28;20467;-68
2023/10/15 10:33:05;;;;;;;6.83;2.17;;;15.10;6.50;;;;;;5006024;28;20471;-67
2023/10/15 10:35:43;;;;;;;5.33;1.43;;;15.30;5.20;;;;;;5008147;28;20460;-69
2023/10/15 10:38:17;;;;;;;5.67;1.33;;;15.80;4.20;;;;;;5005169;28;20483;-67
2023/10/15 10:40:49;;;;;;;9.07;0.90;;;16.80;3.80;;;;;;5009045;28;20460;-67
2023/10/15 10:43:17;;;;;;;4.97;0.90;;;17.30;1.90;;;;;;5006159;28;20480;-67
2023/10/15 10:45:55;;;;;;;4.53;1.00;;;17.40;2.10;;;;;;5003506;28;20489;-67
2023/10/15 10:48:24;;;;;;;6.60;1.40;;;17.30;1.10;;;;;;5005801;28;20460;-67
2023/10/15 10:51:21;;;;;;;6.57;1.37;;;17.00;1.00;;;;;;5004154;28;20530;-67
2023/10/15 10:54:26;;;;;;;6.43;1.27;;;16.70;1.30;;;;;;5004026;28;20476;-67
2023/10/15 10:57:02;;;;;;;4.80;1.00;;;16.50;1.80;;;;;;5004797;28;20463;-67
2023/10/15 10:59:30;;;;;;;6.57;1.57;;;16.50;2.40;;;;;;5008590;28;20466;-67
2023/10/15 11:02:00;;;;;;;4.77;1.30;;;16.30;2.10;;;;;;5014701;28;20479;-68
2023/10/15 11:04:27;;;;;;;5.03;0.97;;;16.10;1.60;;;;;;5021624;28;21022;-67
2023/10/15 11:06:53;;;;;;;5.10;1.30;;;15.80;1.00;;;;;;5019358;28;20460;-66
2023/10/15 11:09:20;;;;;;;3.60;0.90;;;15.60;1.50;;;;;;5014448;28;20482;-67
2023/10/15 11:11:48;;;;;;;4.80;2.00;;;15.40;2.40;;;;;;5017347;28;20466;-67
2023/10/15 11:14:16;;;;;;;3.30;0.90;;;15.10;2.90;;;;;;5020296;28;20470;-68
2023/10/15 11:16:43;;;;;;;4.50;0.80;;;14.90;2.70;;;;;;5019013;28;20474;-67
2023/10/15 11:19:19;;;;;;;4.20;1.03;;;14.80;2.10;;;;;;5036033;23;20635;-65
2023/10/15 11:21:46;;;;;;;3.80;0.83;;;14.60;3.20;;;;;;5020846;28;21041;-66
2023/10/15 11:24:14;;;;;;;5.20;1.13;;;14.40;4.00;;;;;;5023322;28;20490;-65
2023/10/15 11:26:42;;;;;;;3.33;0.60;;;14.20;5.20;;;;;;5024882;28;20456;-65
2023/10/15 11:29:10;;;;;;;4.40;0.90;;;14.00;5.50;;;;;;5026557;28;20455;-65
2023/10/15 11:31:38;;;;;;;4.80;1.50;;;13.80;5.60;;;;;;5023253;28;20568;-66
2023/10/15 11:34:06;;;;;;;5.63;1.00;;;13.60;6.40;;;;;;5024058;28;20467;-65
2023/10/15 11:36:37;;;;;;;5.70;0.87;;;13.50;6.90;;;;;;5021893;28;20486;-66
2023/10/15 11:39:08;;;;;;;14.63;1.20;;;13.40;7.50;;;;;;5028834;28;21005;-65
2023/10/15 11:41:36;;;;;;;5.60;0.80;;;13.30;7.60;;;;;;5021228;28;20852;-66
2023/10/15 11:44:06;;;;;;;4.40;1.17;;;13.40;7.90;;;;;;5021382;28;20982;-67
2023/10/15 11:46:33;;;;;;;3.80;0.90;;;13.50;7.30;;;;;;5025970;28;20463;-67
2023/10/15 11:49:01;;;;;;;4.43;1.17;;;13.60;7.80;;;;;;5027951;28;20459;-67
2023/10/15 11:51:29;;;;;;;5.03;1.27;;;13.70;6.60;;;;;;5025348;28;20831;-67
2023/10/15 11:54:01;;;;;;;4.57;1.03;;;13.80;6.30;;;;;;5022263;28;20507;-67
2023/10/15 11:56:29;;;;;;;5.43;1.50;;;13.80;6.50;;;;;;5024158;28;20475;-67
2023/10/15 11:58:57;;;;;;;3.93;1.03;;;13.80;6.50;;;;;;5024099;28;20521;-67
2023/10/15 12:01:24;;;;;;;4.40;0.87;;;13.70;7.10;;;;;;5016299;28;20474;-65
2023/10/15 12:03:51;;;;;;;6.77;1.70;;;13.70;7.70;;;;;;5022597;28;20857;-67
2023/10/15 12:06:18;;;;;;;8.70;2.50;;;13.70;7.50;;;;;;5023372;28;20950;-67
2023/10/15 12:08:44;;;;;;;7.20;1.40;;;13.70;7.20;;;;;;5024767;28;20469;-67
2023/10/15 12:11:14;;;;;;;7.27;1.47;;;13.70;6.50;;;;;;5021027;28;20463;-65
2023/10/15 12:13:43;;;;;;;5.23;1.20;;;13.60;6.90;;;;;;5024983;28;21004;-65
2023/10/15 12:16:10;;;;;;;4.03;1.10;;;13.50;7.00;;;;;;5021450;28;20529;-65
2023/10/15 12:18:38;;;;;;;4.50;1.30;;;13.40;7.20;;;;;;5028484;28;20505;-65
2023/10/15 12:21:06;;;;;;;5.73;1.77;;;13.30;7.00;;;;;;5023150;28;20463;-65
2023/10/15 12:23:32;;;;;;;4.90;1.13;;;13.30;8.10;;;;;;5030636;28;20997;-65
2023/10/15 12:26:00;;;;;;;4.80;1.23;;;13.40;7.80;;;;;;5027170;28;20479;-65
2023/10/15 12:28:29;;;;;;;3.83;1.00;;;13.40;7.30;;;;;;5029373;28;20447;-65
2023/10/15 12:30:56;;;;;;;7.53;1.73;;;13.50;7.20;;;;;;5025172;28;20499;-65
2023/10/15 12:33:23;;;;;;;3.63;0.83;;;13.60;6.90;;;;;;5025772;28;21102;-65
2023/10/15 12:35:50;;;;;;;4.30;1.17;;;13.70;7.20;;;;;;5022957;28;20460;-65
2023/10/15 12:38:26;;;;;;;4.00;1.07;;;13.70;6.30;;;;;;5028207;28;20980;-65
2023/10/15 12:40:55;;;;;;;4.43;1.33;;;13.90;5.90;;;;;;5027511;28;20454;-65
2023/10/15 12:43:22;;;;;;;4.97;1.13;;;13.90;5.80;;;;;;5027268;28;20487;-65
2023/10/15 12:45:52;;;;;;;4.60;1.20;;;13.90;5.20;;;;;;5024335;28;20483;-65
2023/10/15 12:48:19;;;;;;;4.93;1.30;;;13.90;5.30;;;;;;5028814;28;20517;-65
2023/10/15 12:50:47;;;;;;;4.43;1.00;;;13.90;6.00;;;;;;5018418;28;20459;-65
2023/10/15 12:53:13;;;;;;;5.70;1.17;;;14.00;6.50;;;;;;5025255;28;21250;-65
2023/10/15 12:55:40;;;;;;;8.30;1.40;;;14.10;6.80;;;;;;5026902;28;20455;-66
2023/10/15 12:58:09;;;;;;;5.97;1.33;;;14.20;6.30;;;;;;5030582;28;20463;-65
2023/10/15 13:00:39;;;;;;;4.03;1.10;;;14.30;6.10;;;;;;5024444;28;20541;-65
2023/10/15 13:03:07;;;;;;;4.30;1.07;;;14.30;6.30;;;;;;5024126;28;20482;-67